Time;durP1;ratioP1;P1;durP2;ratioP2;P2;SDS_P1;SDS_P2;PMS_P1;PMS_P2;Temp;Humidity;BMP_temperature;BMP_pressure;BME280_temperature;BME280_humidity;BME280_pressure;Samples;Min_cycle;Max_cycle;Signal;HPM_P1;HPM_P2
2022/10/25 00:00:29;;;;;;;;;;;;;;;16.42;78.04;100450.37;5323609;32;34630;-80
2022/10/25 00:03:31;;;;;;;;;;;;;;;16.76;75.16;100457.13;5302376;32;34317;-76
2022/10/25 00:06:33;;;;;;;;;;;;;;;16.47;76.30;100462.41;5306196;32;36299;-78
2022/10/25 00:09:35;;;;;;;;;;;;;;;16.87;74.35;100453.75;5308817;32;34172;-81
2022/10/25 00:12:41;;;;;;;;;;;;;;;16.05;77.57;100476.50;5303445;32;35170;-80
2022/10/25 00:15:43;;;;;;;;;;;;;;;16.93;74.89;100479.91;5323354;32;43389;-77
2022/10/25 00:18:45;;;;;;;;;;;;;;;16.92;74.47;100483.53;5302609;32;35678;-80
2022/10/25 00:21:47;;;;;;;;;;;;;;;16.51;77.04;100490.47;5321950;32;34814;-82
2022/10/25 00:24:48;;;;;;;;;;;;;;;16.43;76.29;100484.78;5283441;32;35473;-81
2022/10/25 00:27:50;;;;;;;;;;;;;;;16.94;74.27;100498.41;5280512;32;35703;-80
2022/10/25 00:31:02;;;;;;;;;;;;;;;17.00;74.23;100502.47;5307648;32;35632;-79
2022/10/25 00:34:04;;;;;;;;;;;;;;;15.93;78.29;100498.44;5301299;32;34517;-76
2022/10/25 00:37:06;;;;;;;;;;;;;;;15.53;81.89;100491.97;5319874;32;36153;-76
2022/10/25 00:40:08;;;;;;;;;;;;;;;15.31;83.25;100487.87;5280847;33;37224;-80
2022/10/25 00:43:10;;;;;;;;;;;;;;;15.53;83.92;100500.75;5318756;32;44405;-76
2022/10/25 00:46:20;;;;;;;;;;;;;;;16.24;79.81;100494.81;5291032;33;35056;-81
2022/10/25 00:49:22;;;;;;;;;;;;;;;16.19;79.98;100492.44;5311938;33;35008;-76
2022/10/25 00:52:24;;;;;;;;;;;;;;;15.68;83.56;100496.38;5324975;32;35911;-76
2022/10/25 00:55:27;;;;;;;;;;;;;;;16.03;81.83;100494.28;5305830;32;34646;-79
2022/10/25 00:58:30;;;;;;;;;;;;;;;16.61;79.18;100497.84;5311400;32;34079;-77
2022/10/25 01:01:32;;;;;;;;;;;;;;;16.88;76.94;100505.91;5292276;32;36376;-82
2022/10/25 01:04:34;;;;;;;;;;;;;;;17.01;75.66;100507.69;5322289;32;37032;-80
2022/10/25 01:07:36;;;;;;;;;;;;;;;17.09;75.86;100501.03;5291099;32;34416;-80
2022/10/25 01:10:37;;;;;;;;;;;;;;;17.37;74.25;100518.69;5298391;32;35838;-80
2022/10/25 01:13:40;;;;;;;;;;;;;;;17.12;75.41;100512.28;5300228;32;46496;-76
2022/10/25 01:17:00;;;;;;;;;;;;;;;16.55;78.28;100511.47;5291193;33;34682;-77
2022/10/25 01:20:11;;;;;;;;;;;;;;;16.67;77.99;100503.59;5321757;33;34200;-81
2022/10/25 01:23:32;;;;;;;;;;;;;;;16.35;78.82;100512.69;5299768;32;43501;-76
2022/10/25 01:26:40;;;;;;;;;;;;;;;16.33;80.03;100514.59;5287070;32;34360;-78
2022/10/25 01:29:48;;;;;;;;;;;;;;;16.48;78.77;100524.28;5321061;32;45948;-76
2022/10/25 01:32:53;;;;;;;;;;;;;;;15.68;82.22;100509.62;5291159;32;35376;-81
2022/10/25 01:35:58;;;;;;;;;;;;;;;15.73;82.42;100498.78;5331755;32;34614;-76
2022/10/25 01:39:02;;;;;;;;;;;;;;;16.26;80.73;100492.91;5316636;32;35383;-82
2022/10/25 01:42:05;;;;;;;;;;;;;;;15.81;82.43;100504.47;5308160;32;34234;-77
2022/10/25 01:45:12;;;;;;;;;;;;;;;16.46;79.53;100495.19;5295272;32;36535;-76
2022/10/25 01:48:16;;;;;;;;;;;;;;;17.16;75.56;100497.87;5303798;32;43879;-82
2022/10/25 01:51:18;;;;;;;;;;;;;;;16.49;78.05;100512.75;5322580;32;35476;-77
2022/10/25 01:54:21;;;;;;;;;;;;;;;16.12;80.41;100512.31;5306589;32;34671;-82
2022/10/25 01:57:41;;;;;;;;;;;;;;;16.62;78.44;100500.41;5323172;32;34578;-77
2022/10/25 02:00:55;;;;;;;;;;;;;;;16.95;77.39;100501.91;5306204;32;44711;-78
2022/10/25 02:04:03;;;;;;;;;;;;;;;15.89;82.21;100507.53;5303022;32;37946;-78
2022/10/25 02:07:24;;;;;;;;;;;;;;;16.06;81.93;100506.53;5323645;32;35426;-77
2022/10/25 02:10:35;;;;;;;;;;;;;;;16.75;78.54;100504.03;5292674;32;34029;-81
2022/10/25 02:13:52;;;;;;;;;;;;;;;16.42;80.91;100495.47;5319915;32;34523;-81
2022/10/25 02:17:06;;;;;;;;;;;;;;;16.66;79.31;100488.63;5295203;32;35689;-81
2022/10/25 02:20:08;;;;;;;;;;;;;;;16.31;81.10;100493.50;5309296;32;35687;-77
2022/10/25 02:23:10;;;;;;;;;;;;;;;16.21;80.27;100501.13;5307443;32;45880;-81
2022/10/25 02:26:12;;;;;;;;;;;;;;;15.66;84.12;100491.19;5273252;32;35720;-77
2022/10/25 02:29:17;;;;;;;;;;;;;;;15.74;83.57;100487.22;5321581;32;35413;-77
2022/10/25 02:32:19;;;;;;;;;;;;;;;16.24;83.01;100498.31;5314472;32;34022;-76
2022/10/25 02:35:21;;;;;;;;;;;;;;;15.75;84.37;100483.63;5311943;32;34671;-78
2022/10/25 02:38:23;;;;;;;;;;;;;;;15.29;86.46;100479.19;5314770;32;35421;-76
2022/10/25 02:41:25;;;;;;;;;;;;;;;16.02;84.12;100487.28;5292885;32;33938;-76
2022/10/25 02:44:27;;;;;;;;;;;;;;;15.74;83.29;100480.13;5323602;32;34469;-82
2022/10/25 02:47:28;;;;;;;;;;;;;;;15.82;83.47;100479.66;5308185;32;34908;-76
2022/10/25 02:50:30;;;;;;;;;;;;;;;15.57;85.17;100467.84;5323732;32;35532;-76
2022/10/25 02:53:33;;;;;;;;;;;;;;;16.11;83.55;100473.50;5302575;32;34912;-81
2022/10/25 02:56:35;;;;;;;;;;;;;;;16.47;80.47;100480.97;5309667;32;34110;-76
2022/10/25 02:59:37;;;;;;;;;;;;;;;16.68;80.18;100488.53;5318451;32;34991;-81
2022/10/25 03:02:39;;;;;;;;;;;;;;;16.03;82.17;100473.09;5292137;32;36385;-76
2022/10/25 03:05:43;;;;;;;;;;;;;;;16.56;80.62;100486.69;5324026;32;35263;-77
2022/10/25 03:08:45;;;;;;;;;;;;;;;16.78;80.22;100501.16;5305562;32;34330;-80
2022/10/25 03:11:47;;;;;;;;;;;;;;;16.77;78.85;100501.28;5309550;32;34790;-76
2022/10/25 03:14:48;;;;;;;;;;;;;;;16.66;79.25;100504.56;5308073;32;34788;-81
2022/10/25 03:17:50;;;;;;;;;;;;;;;16.70;79.43;100508.78;5313002;32;35748;-80
2022/10/25 03:20:59;;;;;;;;;;;;;;;16.34;80.85;100508.34;5303447;33;35516;-82
2022/10/25 03:24:01;;;;;;;;;;;;;;;16.18;82.56;100514.59;5303098;32;33382;-77
2022/10/25 03:27:03;;;;;;;;;;;;;;;16.22;82.56;100521.41;5284819;32;34635;-80
2022/10/25 03:30:06;;;;;;;;;;;;;;;16.75;79.51;100506.69;5306946;32;34096;-82
2022/10/25 03:33:08;;;;;;;;;;;;;;;17.62;74.26;100496.66;5318991;32;35694;-77
2022/10/25 03:36:10;;;;;;;;;;;;;;;17.52;74.42;100491.13;5287693;32;43718;-80
2022/10/25 03:39:13;;;;;;;;;;;;;;;17.70;73.10;100495.19;5307325;32;35903;-80
2022/10/25 03:42:15;;;;;;;;;;;;;;;16.03;81.72;100499.59;5308109;32;35449;-83
2022/10/25 03:45:18;;;;;;;;;;;;;;;16.56;79.95;100514.06;5305591;32;33977;-78
2022/10/25 03:48:20;;;;;;;;;;;;;;;16.32;79.77;100511.09;5319040;32;34906;-78
2022/10/25 03:51:22;;;;;;;;;;;;;;;16.20;80.24;100507.41;5292021;33;34352;-76
2022/10/25 03:54:24;;;;;;;;;;;;;;;16.78;78.50;100519.75;5320656;32;34671;-76
2022/10/25 03:57:30;;;;;;;;;;;;;;;16.45;78.88;100509.41;5282626;33;34715;-76
2022/10/25 04:00:31;;;;;;;;;;;;;;;16.67;78.41;100500.09;5307236;32;34058;-78
2022/10/25 04:03:34;;;;;;;;;;;;;;;16.28;80.16;100492.81;5306896;32;32566;-76
2022/10/25 04:06:36;;;;;;;;;;;;;;;16.11;81.24;100484.09;5281634;32;34121;-80
2022/10/25 04:09:38;;;;;;;;;;;;;;;15.57;84.90;100486.38;5322717;32;35055;-80
2022/10/25 04:12:40;;;;;;;;;;;;;;;16.10;82.48;100481.50;5301849;32;44696;-81
2022/10/25 04:15:42;;;;;;;;;;;;;;;16.36;80.97;100485.22;5323558;32;34587;-79
2022/10/25 04:18:44;;;;;;;;;;;;;;;16.04;81.85;100497.81;5315317;32;38844;-76
2022/10/25 04:21:46;;;;;;;;;;;;;;;16.25;80.87;100502.66;5293657;32;35911;-81
2022/10/25 04:24:48;;;;;;;;;;;;;;;16.19;81.62;100488.94;5313803;32;34910;-77
2022/10/25 04:27:50;;;;;;;;;;;;;;;16.60;79.87;100480.22;5274225;32;37278;-77
2022/10/25 04:30:52;;;;;;;;;;;;;;;16.49;78.96;100483.56;5309003;33;35041;-83
2022/10/25 04:33:54;;;;;;;;;;;;;;;16.42;79.38;100492.81;5301189;32;35874;-76
2022/10/25 04:36:56;;;;;;;;;;;;;;;16.31;80.43;100501.44;5319422;32;35715;-77
2022/10/25 04:39:59;;;;;;;;;;;;;;;16.66;78.59;100491.28;5305893;32;34274;-76
2022/10/25 04:43:01;;;;;;;;;;;;;;;17.13;75.56;100491.91;5304137;32;34954;-81
2022/10/25 04:46:03;;;;;;;;;;;;;;;16.86;76.70;100499.84;5323258;32;34390;-82
2022/10/25 04:49:05;;;;;;;;;;;;;;;16.53;78.01;100491.22;5302617;32;34312;-76
2022/10/25 04:52:07;;;;;;;;;;;;;;;17.19;74.42;100492.34;5321282;32;34551;-81
2022/10/25 04:55:09;;;;;;;;;;;;;;;17.36;72.84;100501.91;5291680;33;37446;-80
2022/10/25 04:58:11;;;;;;;;;;;;;;;16.69;75.91;100506.19;5317310;32;34938;-76
2022/10/25 05:01:14;;;;;;;;;;;;;;;17.05;74.56;100505.69;5294208;32;34529;-80
2022/10/25 05:04:16;;;;;;;;;;;;;;;16.82;75.07;100496.53;5302545;32;34373;-76
2022/10/25 05:07:18;;;;;;;;;;;;;;;16.98;75.03;100499.06;5307598;32;34273;-81
2022/10/25 05:10:20;;;;;;;;;;;;;;;17.26;73.41;100512.28;5313711;32;35557;-76
2022/10/25 05:13:22;;;;;;;;;;;;;;;16.78;75.95;100509.13;5318707;32;34483;-82
2022/10/25 05:16:25;;;;;;;;;;;;;;;16.67;76.19;100508.91;5303656;32;34449;-76
2022/10/25 05:19:27;;;;;;;;;;;;;;;17.28;73.75;100507.72;5302152;32;34412;-76
2022/10/25 05:22:29;;;;;;;;;;;;;;;16.99;75.16;100506.06;5318193;32;36323;-80
2022/10/25 05:25:32;;;;;;;;;;;;;;;17.63;71.99;100506.34;5278027;32;35842;-77
2022/10/25 05:28:34;;;;;;;;;;;;;;;17.68;71.32;100502.41;5313166;32;33874;-77
2022/10/25 05:31:38;;;;;;;;;;;;;;;16.33;75.59;100507.50;5303426;32;34269;-81
2022/10/25 05:34:40;;;;;;;;;;;;;;;17.11;74.23;100505.28;5305729;32;44428;-78
2022/10/25 05:37:42;;;;;;;;;;;;;;;16.88;74.93;100522.69;5300608;32;35197;-74
2022/10/25 05:40:50;;;;;;;;;;;;;;;17.08;73.58;100528.53;5316377;32;35485;-82
2022/10/25 05:43:52;;;;;;;;;;;;;;;17.67;71.27;100534.44;5312888;32;37142;-83
2022/10/25 05:46:55;;;;;;;;;;;;;;;17.40;72.12;100564.50;5303678;32;35067;-81
2022/10/25 05:49:57;;;;;;;;;;;;;;;16.37;75.82;100575.34;5302669;32;35878;-75
2022/10/25 05:52:59;;;;;;;;;;;;;;;17.31;72.66;100581.88;5287735;32;33313;-73
2022/10/25 05:56:00;;;;;;;;;;;;;;;17.18;71.16;100596.03;5319669;32;35352;-80
2022/10/25 05:59:10;;;;;;;;;;;;;;;16.69;73.46;100605.22;5307634;32;34571;-75
2022/10/25 06:02:12;;;;;;;;;;;;;;;16.25;73.91;100599.94;5288834;32;44511;-74
2022/10/25 06:05:14;;;;;;;;;;;;;;;16.32;73.38;100614.53;5308513;32;34302;-75
2022/10/25 06:08:16;;;;;;;;;;;;;;;16.86;72.82;100612.19;5298697;32;33570;-72
2022/10/25 06:11:18;;;;;;;;;;;;;;;16.21;74.99;100607.22;5320214;32;33921;-73
2022/10/25 06:14:23;;;;;;;;;;;;;;;16.74;72.55;100597.00;5305148;32;37401;-76
2022/10/25 06:17:25;;;;;;;;;;;;;;;17.09;71.00;100608.09;5322632;32;35635;-77
2022/10/25 06:20:28;;;;;;;;;;;;;;;16.92;71.10;100616.25;5310735;32;34930;-77
2022/10/25 06:23:35;;;;;;;;;;;;;;;17.44;70.16;100634.22;5289699;32;34211;-73
2022/10/25 06:26:37;;;;;;;;;;;;;;;17.24;71.09;100636.34;5271146;32;32960;-78
2022/10/25 06:29:40;;;;;;;;;;;;;;;17.97;67.90;100640.56;5310565;32;45995;-77
2022/10/25 06:32:41;;;;;;;;;;;;;;;17.94;68.03;100652.28;5320487;32;34311;-75
2022/10/25 06:35:43;;;;;;;;;;;;;;;17.01;69.65;100642.25;5303186;32;34438;-81
2022/10/25 06:38:46;;;;;;;;;;;;;;;17.24;68.43;100643.47;5316606;32;36777;-80
2022/10/25 06:41:48;;;;;;;;;;;;;;;16.89;69.82;100638.56;5296797;32;34303;-75
2022/10/25 06:44:50;;;;;;;;;;;;;;;16.41;71.04;100640.50;5307142;32;35066;-77
2022/10/25 06:47:52;;;;;;;;;;;;;;;16.53;71.11;100638.94;5297666;32;35610;-80
2022/10/25 06:51:01;;;;;;;;;;;;;;;16.60;70.16;100636.75;5306182;32;34492;-79
2022/10/25 06:54:06;;;;;;;;;;;;;;;16.40;71.37;100649.41;5312181;32;35440;-75
2022/10/25 06:57:08;;;;;;;;;;;;;;;17.00;69.71;100636.09;5303972;32;35661;-69
2022/10/25 07:00:11;;;;;;;;;;;;;;;16.91;68.86;100641.09;5296984;32;44946;-71
2022/10/25 07:03:13;;;;;;;;;;;;;;;17.16;69.07;100646.59;5308453;32;34803;-76
2022/10/25 07:06:16;;;;;;;;;;;;;;;16.62;70.34;100641.06;5306129;32;33605;-69
2022/10/25 07:09:18;;;;;;;;;;;;;;;16.67;70.19;100636.28;5314135;32;34378;-70
2022/10/25 07:12:20;;;;;;;;;;;;;;;16.87;68.83;100632.47;5304507;32;34307;-70
2022/10/25 07:15:23;;;;;;;;;;;;;;;17.26;65.72;100634.47;5315654;32;34715;-74
2022/10/25 07:18:25;;;;;;;;;;;;;;;17.03;67.67;100635.88;5303393;32;34484;-75
2022/10/25 07:21:27;;;;;;;;;;;;;;;18.07;65.60;100639.03;5314329;32;34091;-73
2022/10/25 07:24:30;;;;;;;;;;;;;;;17.61;67.14;100639.34;5295399;32;34373;-75
2022/10/25 07:27:32;;;;;;;;;;;;;;;17.86;67.13;100639.47;5281131;32;33990;-72
2022/10/25 07:30:34;;;;;;;;;;;;;;;17.98;66.66;100652.94;5322785;32;37967;-71
2022/10/25 07:33:35;;;;;;;;;;;;;;;17.35;69.50;100653.44;5305381;32;35364;-78
2022/10/25 07:36:37;;;;;;;;;;;;;;;17.28;69.30;100659.12;5317481;32;37511;-68
2022/10/25 07:39:39;;;;;;;;;;;;;;;17.35;68.86;100656.09;5289741;32;44467;-68
2022/10/25 07:42:41;;;;;;;;;;;;;;;17.39;69.34;100662.88;5309605;32;34274;-72
2022/10/25 07:45:43;;;;;;;;;;;;;;;18.43;65.22;100645.50;5309951;32;34732;-73
2022/10/25 07:48:45;;;;;;;;;;;;;;;18.67;62.90;100651.81;5309612;32;37224;-76
2022/10/25 07:51:47;;;;;;;;;;;;;;;19.00;61.69;100669.09;5321003;32;36052;-74
2022/10/25 07:54:49;;;;;;;;;;;;;;;18.13;65.62;100679.38;5309001;32;35677;-76
2022/10/25 07:57:51;;;;;;;;;;;;;;;18.54;60.84;100665.09;5317140;32;34255;-80
2022/10/25 08:00:58;;;;;;;;;;;;;;;18.65;60.98;100670.53;5294164;32;34911;-73
2022/10/25 08:04:00;;;;;;;;;;;;;;;18.49;61.68;100671.72;5309733;32;35440;-73
2022/10/25 08:07:03;;;;;;;;;;;;;;;18.25;62.60;100683.03;5316563;32;34461;-77
2022/10/25 08:10:05;;;;;;;;;;;;;;;17.75;63.60;100678.34;5278828;32;34721;-73
2022/10/25 08:13:07;;;;;;;;;;;;;;;17.89;63.96;100682.75;5318581;32;35489;-72
2022/10/25 08:16:09;;;;;;;;;;;;;;;18.29;62.46;100676.56;5308587;32;37132;-75
2022/10/25 08:19:11;;;;;;;;;;;;;;;18.34;61.15;100671.75;5317944;32;34500;-75
2022/10/25 08:22:13;;;;;;;;;;;;;;;18.25;63.09;100679.50;5304259;32;34537;-79
2022/10/25 08:25:16;;;;;;;;;;;;;;;18.29;62.32;100684.53;5281189;32;34690;-78
2022/10/25 08:28:18;;;;;;;;;;;;;;;18.37;62.71;100673.38;5293010;32;34831;-77
2022/10/25 08:31:20;;;;;;;;;;;;;;;17.40;65.21;100670.78;5292857;32;35549;-73
2022/10/25 08:34:22;;;;;;;;;;;;;;;18.49;62.51;100659.25;5314894;32;34294;-80
2022/10/25 08:37:24;;;;;;;;;;;;;;;17.91;64.18;100667.59;5277222;32;35251;-79
2022/10/25 08:40:45;;;;;;;;;;;;;;;17.83;64.56;100668.91;5318214;32;33468;-79
2022/10/25 08:43:53;;;;;;;;;;;;;;;17.92;65.05;100666.63;5305670;32;44503;-77
2022/10/25 08:46:55;;;;;;;;;;;;;;;18.26;64.30;100684.72;5302757;32;35668;-73
2022/10/25 08:49:59;;;;;;;;;;;;;;;18.28;64.26;100689.94;5323206;32;33394;-72
2022/10/25 08:53:02;;;;;;;;;;;;;;;19.16;61.45;100694.56;5305295;32;35363;-82
2022/10/25 08:56:04;;;;;;;;;;;;;;;19.04;61.32;100702.56;5321750;32;34710;-87
2022/10/25 08:59:19;;;;;;;;;;;;;;;19.26;61.20;100710.78;5300988;32;44343;-77
2022/10/25 09:02:27;;;;;;;;;;;;;;;19.00;61.97;100709.94;5310387;32;34917;-71
2022/10/25 09:05:32;;;;;;;;;;;;;;;19.59;60.04;100706.72;5317436;32;32789;-72
2022/10/25 09:08:34;;;;;;;;;;;;;;;19.23;59.33;100705.66;5302832;32;34763;-73
2022/10/25 09:11:48;;;;;;;;;;;;;;;18.82;60.04;100717.38;5321775;32;34422;-87
2022/10/25 09:14:58;;;;;;;;;;;;;;;18.75;59.76;100707.25;5306562;32;34607;-84
2022/10/25 09:18:02;;;;;;;;;;;;;;;18.88;58.83;100705.44;5302533;32;34536;-83
2022/10/25 09:21:04;;;;;;;;;;;;;;;19.21;58.24;100708.44;5306462;32;34377;-74
2022/10/25 09:24:15;;;;;;;;;;;;;;;19.81;56.29;100706.00;5307111;32;44412;-76
2022/10/25 09:27:19;;;;;;;;;;;;;;;18.96;58.75;100710.22;5309226;32;35549;-78
2022/10/25 09:30:21;;;;;;;;;;;;;;;18.22;60.28;100704.50;5303236;32;35982;-76
2022/10/25 09:33:27;;;;;;;;;;;;;;;19.62;56.21;100711.81;5313992;32;35516;-74
2022/10/25 09:36:29;;;;;;;;;;;;;;;19.70;56.31;100712.09;5304570;32;34235;-78
2022/10/25 09:39:38;;;;;;;;;;;;;;;19.45;56.47;100707.66;5309484;32;35397;-73
2022/10/25 09:42:42;;;;;;;;;;;;;;;18.46;58.90;100712.66;5287894;32;44919;-75
2022/10/25 09:45:48;;;;;;;;;;;;;;;18.70;59.07;100715.53;5309085;32;34438;-77
2022/10/25 09:48:54;;;;;;;;;;;;;;;18.58;59.19;100709.19;5309661;32;35449;-80
2022/10/25 09:52:25;;;;;;;;;;;;;;;17.38;63.81;100714.31;5290078;32;34288;-82
2022/10/25 09:55:28;;;;;;;;;;;;;;;18.74;61.03;100709.06;5296443;32;34247;-80
2022/10/25 09:58:30;;;;;;;;;;;;;;;18.11;62.87;100707.87;5300752;32;34247;-81
2022/10/25 10:01:32;;;;;;;;;;;;;;;18.79;60.66;100720.22;5302023;32;35569;-77
2022/10/25 10:04:35;;;;;;;;;;;;;;;18.35;62.72;100716.06;5312699;32;34568;-78
2022/10/25 10:07:37;;;;;;;;;;;;;;;18.95;61.27;100725.37;5301708;32;34158;-77
2022/10/25 10:10:39;;;;;;;;;;;;;;;18.80;60.76;100739.72;5314951;32;44496;-76
2022/10/25 10:13:41;;;;;;;;;;;;;;;18.97;60.78;100734.09;5305072;32;35208;-76
2022/10/25 10:16:44;;;;;;;;;;;;;;;18.66;62.09;100736.16;5303662;32;34436;-77
2022/10/25 10:20:05;;;;;;;;;;;;;;;20.01;57.58;100732.94;5318323;32;34844;-80
2022/10/25 10:23:11;;;;;;;;;;;;;;;19.84;58.15;100728.00;5307080;32;36789;-80
2022/10/25 10:26:25;;;;;;;;;;;;;;;20.04;56.76;100734.53;5287626;32;44550;-81
2022/10/25 10:29:28;;;;;;;;;;;;;;;19.02;56.84;100710.66;5307041;32;33100;-79
2022/10/25 10:32:36;;;;;;;;;;;;;;;19.34;56.36;100715.56;5313342;32;33513;-85
2022/10/25 10:35:38;;;;;;;;;;;;;;;18.80;57.60;100719.25;5310402;32;35142;-79
2022/10/25 10:38:40;;;;;;;;;;;;;;;19.02;56.54;100723.97;5301604;32;44664;-80
2022/10/25 10:42:02;;;;;;;;;;;;;;;18.38;59.32;100728.28;5319220;32;35750;-76
2022/10/25 10:45:07;;;;;;;;;;;;;;;18.82;61.25;100722.69;5295154;32;34263;-78
2022/10/25 10:48:13;;;;;;;;;;;;;;;18.86;60.49;100724.16;5308764;32;43330;-79
2022/10/25 10:51:17;;;;;;;;;;;;;;;19.83;56.86;100731.59;5313181;32;36595;-74
2022/10/25 10:54:44;;;;;;;;;;;;;;;19.52;57.50;100732.94;5305432;32;35712;-80
2022/10/25 10:57:46;;;;;;;;;;;;;;;19.75;57.76;100724.16;5314912;32;44421;-78
2022/10/25 11:00:49;;;;;;;;;;;;;;;18.61;59.77;100732.06;5305931;32;35623;-78
2022/10/25 11:03:57;;;;;;;;;;;;;;;19.92;55.93;100733.59;5300584;32;33044;-76
2022/10/25 11:07:20;;;;;;;;;;;;;;;20.49;51.68;100727.63;5279758;32;34273;-75
2022/10/25 11:10:26;;;;;;;;;;;;;;;18.77;56.06;100737.28;5305298;32;35404;-76
2022/10/25 11:13:29;;;;;;;;;;;;;;;19.39;54.61;100734.75;5314843;32;35424;-75
2022/10/25 11:16:37;;;;;;;;;;;;;;;19.96;53.05;100728.87;5303906;32;35544;-75
2022/10/25 11:19:42;;;;;;;;;;;;;;;20.14;51.79;100729.38;5316145;32;44599;-74
2022/10/25 11:22:48;;;;;;;;;;;;;;;19.69;53.15;100726.41;5306063;32;36143;-73
2022/10/25 11:25:52;;;;;;;;;;;;;;;20.86;50.50;100705.28;5292407;32;35376;-72
2022/10/25 11:28:58;;;;;;;;;;;;;;;20.28;52.28;100718.50;5313690;32;35618;-72
2022/10/25 11:32:06;;;;;;;;;;;;;;;20.69;50.72;100707.44;5309771;32;34629;-73
2022/10/25 11:35:26;;;;;;;;;;;;;;;20.50;51.23;100716.00;5317363;32;33349;-73
2022/10/25 11:38:31;;;;;;;;;;;;;;;20.68;50.90;100716.41;5306899;32;35470;-73
2022/10/25 11:41:36;;;;;;;;;;;;;;;20.40;51.78;100714.94;5299434;32;34489;-72
2022/10/25 11:44:38;;;;;;;;;;;;;;;20.06;52.12;100729.09;5319855;32;35217;-75
2022/10/25 11:47:54;;;;;;;;;;;;;;;20.26;52.14;100712.44;5304772;32;45195;-75
2022/10/25 11:50:58;;;;;;;;;;;;;;;20.55;51.69;100721.84;5317535;32;35943;-73
2022/10/25 11:54:20;;;;;;;;;;;;;;;20.72;50.51;100720.53;5288990;32;34376;-76
2022/10/25 11:57:28;;;;;;;;;;;;;;;21.08;50.43;100714.19;5300740;32;36658;-76
2022/10/25 12:00:38;;;;;;;;;;;;;;;20.91;50.59;100709.28;5317623;32;34233;-71
2022/10/25 12:03:47;;;;;;;;;;;;;;;20.53;51.50;100720.22;5288668;32;44652;-75
2022/10/25 12:07:07;;;;;;;;;;;;;;;20.08;52.86;100714.66;5312863;32;34251;-72
2022/10/25 12:10:09;;;;;;;;;;;;;;;20.01;53.42;100721.41;5297761;32;43530;-73
2022/10/25 12:13:34;;;;;;;;;;;;;;;20.77;52.50;100701.50;5299045;32;36138;-74
2022/10/25 12:16:36;;;;;;;;;;;;;;;20.02;53.71;100715.09;5311520;32;35928;-73
2022/10/25 12:19:42;;;;;;;;;;;;;;;20.46;53.41;100708.31;5297234;32;35082;-73
2022/10/25 12:22:44;;;;;;;;;;;;;;;20.80;52.46;100699.47;5309042;32;44823;-86
2022/10/25 12:25:52;;;;;;;;;;;;;;;22.14;48.90;100708.44;5289789;32;35333;-87
2022/10/25 12:28:54;;;;;;;;;;;;;;;21.39;48.95;100710.97;5295263;32;33181;-75
2022/10/25 12:31:56;;;;;;;;;;;;;;;21.66;47.67;100707.91;5303695;32;34189;-70
2022/10/25 12:34:59;;;;;;;;;;;;;;;21.42;47.17;100710.72;5287327;32;34268;-74
2022/10/25 12:38:03;;;;;;;;;;;;;;;20.87;48.85;100707.84;5305973;32;35469;-71
2022/10/25 12:41:07;;;;;;;;;;;;;;;20.45;50.64;100720.81;5277589;32;34366;-73
2022/10/25 12:44:22;;;;;;;;;;;;;;;20.65;50.71;100718.47;5317157;32;44626;-81
2022/10/25 12:47:24;;;;;;;;;;;;;;;21.05;49.37;100711.75;5303165;32;37223;-71
2022/10/25 12:50:41;;;;;;;;;;;;;;;21.17;49.58;100709.09;5303655;32;35520;-75
2022/10/25 12:53:43;;;;;;;;;;;;;;;21.09;49.47;100715.88;5316422;32;43402;-72
2022/10/25 12:56:48;;;;;;;;;;;;;;;21.81;47.71;100712.03;5305589;32;34237;-75
2022/10/25 12:59:56;;;;;;;;;;;;;;;21.79;47.16;100722.00;5313840;32;34235;-75
2022/10/25 13:03:19;;;;;;;;;;;;;;;21.80;47.27;100716.53;5309037;32;33034;-75
2022/10/25 13:06:21;;;;;;;;;;;;;;;23.54;43.15;100711.66;5279850;32;36209;-71
2022/10/25 13:09:23;;;;;;;;;;;;;;;23.61;43.01;100704.81;5309388;32;34185;-74
2022/10/25 13:12:29;;;;;;;;;;;;;;;22.56;45.86;100704.03;5308588;32;36351;-74
2022/10/25 13:15:39;;;;;;;;;;;;;;;24.50;41.46;100696.78;5303071;32;34263;-74
2022/10/25 13:18:43;;;;;;;;;;;;;;;23.93;42.57;100703.75;5300939;32;44712;-77
2022/10/25 13:21:51;;;;;;;;;;;;;;;26.21;38.24;100699.09;5290150;32;35309;-76
2022/10/25 13:24:54;;;;;;;;;;;;;;;27.42;34.77;100701.06;5306688;32;35609;-74
2022/10/25 13:28:14;;;;;;;;;;;;;;;26.61;36.37;100695.97;5289552;32;34636;-74
2022/10/25 13:31:31;;;;;;;;;;;;;;;25.67;37.90;100703.53;5319481;32;44641;-78
2022/10/25 13:34:34;;;;;;;;;;;;;;;24.22;41.43;100699.28;5294961;32;34031;-72
2022/10/25 13:37:36;;;;;;;;;;;;;;;23.61;42.36;100706.62;5315211;32;35326;-74
2022/10/25 13:40:38;;;;;;;;;;;;;;;22.05;46.49;100718.06;5289421;32;35410;-73
2022/10/25 13:43:52;;;;;;;;;;;;;;;21.51;47.47;100708.19;5297027;32;44927;-75
2022/10/25 13:46:54;;;;;;;;;;;;;;;21.75;46.58;100712.53;5320384;32;35677;-74
2022/10/25 13:49:56;;;;;;;;;;;;;;;22.53;44.80;100712.31;5312752;32;34693;-77
2022/10/25 13:52:59;;;;;;;;;;;;;;;21.03;48.35;100719.03;5320807;32;34310;-72
2022/10/25 13:56:04;;;;;;;;;;;;;;;21.56;47.40;100723.84;5290386;32;35716;-73
2022/10/25 13:59:26;;;;;;;;;;;;;;;21.73;46.39;100723.34;5282569;32;860775;-73
2022/10/25 14:02:28;;;;;;;;;;;;;;;21.87;46.25;100724.91;5328447;32;36855;-74
2022/10/25 14:05:49;;;;;;;;;;;;;;;21.49;46.54;100725.31;5295264;32;35822;-76
2022/10/25 14:08:59;;;;;;;;;;;;;;;21.31;46.92;100723.09;5312391;32;34522;-75
2022/10/25 14:12:01;;;;;;;;;;;;;;;21.07;47.57;100725.88;5297799;32;35447;-75
2022/10/25 14:15:12;;;;;;;;;;;;;;;20.80;48.51;100734.19;5314021;32;33949;-74
2022/10/25 14:18:16;;;;;;;;;;;;;;;20.86;48.28;100726.66;5300137;33;44602;-76
2022/10/25 14:21:17;;;;;;;;;;;;;;;21.29;47.58;100726.88;5305327;32;34294;-75
2022/10/25 14:24:19;;;;;;;;;;;;;;;21.36;47.01;100730.78;5318343;32;35484;-74
2022/10/25 14:27:34;;;;;;;;;;;;;;;21.32;46.87;100732.00;5274909;32;35868;-74
2022/10/25 14:30:43;;;;;;;;;;;;;;;20.64;48.18;100732.78;5315717;32;35349;-74
2022/10/25 14:33:51;;;;;;;;;;;;;;;21.36;46.52;100744.12;5302602;32;44696;-75
2022/10/25 14:36:54;;;;;;;;;;;;;;;21.22;46.29;100742.50;5284429;32;34537;-75
2022/10/25 14:39:56;;;;;;;;;;;;;;;20.89;47.59;100739.78;5316663;32;34495;-74
2022/10/25 14:43:16;;;;;;;;;;;;;;;20.68;48.37;100740.47;5303938;32;35898;-72
2022/10/25 14:46:19;;;;;;;;;;;;;;;21.34;46.63;100740.75;5316190;32;44634;-74
2022/10/25 14:49:21;;;;;;;;;;;;;;;20.84;46.96;100740.12;5290095;32;34972;-74
2022/10/25 14:52:26;;;;;;;;;;;;;;;20.61;47.75;100744.56;5291224;32;34997;-77
2022/10/25 14:55:29;;;;;;;;;;;;;;;21.00;46.96;100735.31;5293100;32;34313;-85
2022/10/25 14:58:36;;;;;;;;;;;;;;;20.88;46.82;100746.94;5301485;32;35016;-87
2022/10/25 15:01:38;;;;;;;;;;;;;;;20.75;47.01;100747.03;5318893;32;34324;-83
2022/10/25 15:04:41;;;;;;;;;;;;;;;20.76;47.13;100737.19;5293002;32;45309;-76
2022/10/25 15:07:45;;;;;;;;;;;;;;;20.47;47.71;100747.38;5313524;32;37480;-77
2022/10/25 15:10:48;;;;;;;;;;;;;;;20.59;47.90;100751.81;5307913;32;36017;-84
2022/10/25 15:13:52;;;;;;;;;;;;;;;20.62;47.85;100740.06;5305995;32;35104;-84
2022/10/25 15:17:00;;;;;;;;;;;;;;;20.08;49.12;100751.16;5322633;32;35081;-83
2022/10/25 15:20:05;;;;;;;;;;;;;;;20.22;48.97;100746.53;5306201;33;35279;-83
2022/10/25 15:23:14;;;;;;;;;;;;;;;20.62;47.81;100746.25;5321972;32;35018;-77
2022/10/25 15:26:23;;;;;;;;;;;;;;;20.38;49.09;100753.41;5288231;32;44609;-82
2022/10/25 15:29:28;;;;;;;;;;;;;;;21.12;47.37;100746.88;5308851;32;34922;-83
2022/10/25 15:32:30;;;;;;;;;;;;;;;20.80;47.95;100750.22;5322541;33;36096;-76
2022/10/25 15:35:32;;;;;;;;;;;;;;;21.10;47.42;100757.69;5306179;32;34593;-84
2022/10/25 15:38:34;;;;;;;;;;;;;;;21.22;47.19;100763.06;5320265;32;34233;-84
2022/10/25 15:41:56;;;;;;;;;;;;;;;21.21;47.05;100764.88;5304780;32;34549;-83
2022/10/25 15:44:58;;;;;;;;;;;;;;;20.91;47.73;100762.72;5315310;32;34356;-84
2022/10/25 15:48:00;;;;;;;;;;;;;;;20.98;47.81;100765.78;5311315;32;35563;-77